createdAt,value
2018-07-25T00:01:03.425Z,4.90
2018-07-25T00:03:34.731Z,4.30
2018-07-25T00:06:04.999Z,4.93
2018-07-25T00:08:34.598Z,4.47
2018-07-25T00:11:04.502Z,5.83
2018-07-25T00:13:34.548Z,5.27
2018-07-25T00:16:04.954Z,4.50
2018-07-25T00:18:35.257Z,4.87
2018-07-25T00:21:04.793Z,4.40
2018-07-25T00:23:34.532Z,6.23
2018-07-25T00:26:05.471Z,7.13
2018-07-25T00:28:35.056Z,5.00
2018-07-25T00:31:04.855Z,5.90
2018-07-25T00:33:34.431Z,4.57
2018-07-25T00:36:09.007Z,5.00
2018-07-25T00:38:38.535Z,4.83
2018-07-25T00:41:08.155Z,5.53
2018-07-25T00:43:39.199Z,5.37
2018-07-25T00:46:08.791Z,4.80
2018-07-25T00:48:38.629Z,5.00
2018-07-25T00:51:08.213Z,5.17
2018-07-25T00:53:39.387Z,4.90
2018-07-25T00:56:09.817Z,5.70
2018-07-25T00:58:41.166Z,5.97
2018-07-25T01:01:10.883Z,5.50
2018-07-25T01:03:42.902Z,5.53
2018-07-25T01:06:13.199Z,4.50
2018-07-25T01:08:43.863Z,5.03
2018-07-25T01:11:13.652Z,5.53
2018-07-25T01:13:44.137Z,5.13
2018-07-25T01:16:14.180Z,4.30
2018-07-25T01:18:44.507Z,4.83
2018-07-25T01:21:15.550Z,5.50
2018-07-25T01:23:45.058Z,6.17
2018-07-25T01:26:14.178Z,4.67
2018-07-25T01:28:44.407Z,6.43
2018-07-25T01:31:14.921Z,5.13
2018-07-25T01:33:45.044Z,5.63
2018-07-25T01:36:15.024Z,4.70
2018-07-25T01:38:45.537Z,5.37
2018-07-25T01:41:14.681Z,5.87
2018-07-25T01:43:45.277Z,6.20
2018-07-25T01:46:14.942Z,4.80
2018-07-25T01:48:45.778Z,5.57
2018-07-25T01:51:15.450Z,4.77
2018-07-25T01:53:44.562Z,5.13
2018-07-25T01:56:14.800Z,5.20
2018-07-25T01:58:44.630Z,5.00
2018-07-25T02:01:14.266Z,5.13
2018-07-25T02:03:44.378Z,5.33
2018-07-25T02:06:14.696Z,6.03
2018-07-25T02:08:45.091Z,5.03
2018-07-25T02:11:15.249Z,5.23
2018-07-25T02:13:44.836Z,6.37
2018-07-25T02:16:14.547Z,6.73
2018-07-25T02:18:45.008Z,4.60
2018-07-25T02:21:14.577Z,5.67
2018-07-25T02:23:44.126Z,7.17
2018-07-25T02:26:13.945Z,4.77
2018-07-25T02:28:44.680Z,5.50
2018-07-25T02:31:15.111Z,5.33
2018-07-25T02:33:50.501Z,6.30
2018-07-25T02:36:20.066Z,5.63
2018-07-25T02:38:49.849Z,5.43
2018-07-25T02:41:19.601Z,5.03
2018-07-25T02:43:49.194Z,6.80
2018-07-25T02:46:18.725Z,5.47
2018-07-25T02:48:48.332Z,5.33
2018-07-25T02:51:17.843Z,6.33
2018-07-25T02:53:47.308Z,5.97
2018-07-25T02:56:16.854Z,5.37
2018-07-25T02:58:46.312Z,4.97
2018-07-25T03:01:15.875Z,5.37
2018-07-25T03:03:45.330Z,5.37
2018-07-25T03:06:14.843Z,5.30
2018-07-25T03:08:44.520Z,5.60
2018-07-25T03:11:16.841Z,5.30
2018-07-25T03:13:46.617Z,6.60
2018-07-25T03:16:16.311Z,5.47
2018-07-25T03:18:46.120Z,5.73
2018-07-25T03:21:16.367Z,5.87
2018-07-25T03:23:45.823Z,5.57
2018-07-25T03:26:17.187Z,5.37
2018-07-25T03:28:46.617Z,7.50
2018-07-25T03:31:16.195Z,6.70
2018-07-25T03:33:45.556Z,5.77
2018-07-25T03:36:15.620Z,6.87
2018-07-25T03:38:45.189Z,6.13
2018-07-25T03:41:14.628Z,5.83
2018-07-25T03:43:44.088Z,6.63
2018-07-25T03:46:13.297Z,6.70
2018-07-25T03:48:42.687Z,6.73
2018-07-25T03:51:12.785Z,6.50
2018-07-25T03:53:43.651Z,5.80
2018-07-25T03:56:14.135Z,5.80
2018-07-25T03:58:44.816Z,7.03
2018-07-25T04:01:14.406Z,6.20
2018-07-25T04:03:44.483Z,9.50
2018-07-25T04:06:14.065Z,6.37
2018-07-25T04:08:44.795Z,6.33
2018-07-25T04:11:14.366Z,6.43
2018-07-25T04:13:43.483Z,6.50
2018-07-25T04:16:12.598Z,5.73
2018-07-25T04:18:42.065Z,5.33
2018-07-25T04:21:11.221Z,6.90
2018-07-25T04:23:40.856Z,7.53
2018-07-25T04:26:11.669Z,5.97
2018-07-25T04:28:41.178Z,5.90
2018-07-25T04:31:11.198Z,5.43
2018-07-25T04:33:41.528Z,7.37
2018-07-25T04:36:11.675Z,7.17
2018-07-25T04:38:43.076Z,5.63
2018-07-25T04:41:12.645Z,5.30
2018-07-25T04:43:42.158Z,5.87
2018-07-25T04:46:13.375Z,5.30
2018-07-25T04:48:43.496Z,6.17
2018-07-25T04:51:13.708Z,5.97
2018-07-25T04:53:42.893Z,5.40
2018-07-25T04:56:12.970Z,6.47
2018-07-25T04:58:43.012Z,6.27
2018-07-25T05:01:13.464Z,6.53
2018-07-25T05:03:44.195Z,5.17
2018-07-25T05:06:14.563Z,5.23
2018-07-25T05:08:44.765Z,5.90
2018-07-25T05:11:14.515Z,5.37
2018-07-25T05:13:44.112Z,6.23
2018-07-25T05:16:14.137Z,6.37
2018-07-25T05:18:43.746Z,6.07
2018-07-25T05:21:14.542Z,5.57
2018-07-25T05:23:45.650Z,5.70
2018-07-25T05:26:15.668Z,5.27
2018-07-25T05:28:46.796Z,5.13
2018-07-25T05:31:18.055Z,5.10
2018-07-25T05:33:47.989Z,5.70
2018-07-25T05:36:19.621Z,5.30
2018-07-25T05:38:50.308Z,5.03
2018-07-25T05:41:21.299Z,4.90
2018-07-25T05:43:52.020Z,5.17
2018-07-25T05:46:22.061Z,5.30
2018-07-25T05:48:52.182Z,5.40
2018-07-25T05:51:21.895Z,5.37
2018-07-25T05:53:51.883Z,5.47
2018-07-25T05:56:22.554Z,4.67
2018-07-25T05:58:52.242Z,5.00
2018-07-25T06:01:21.877Z,5.43
2018-07-25T06:03:51.534Z,4.53
2018-07-25T06:06:20.908Z,6.70
2018-07-25T06:08:50.406Z,4.93
2018-07-25T06:11:20.120Z,4.90
2018-07-25T06:13:49.732Z,4.77
2018-07-25T06:16:19.380Z,4.50
2018-07-25T06:18:48.815Z,5.53
2018-07-25T06:21:18.285Z,4.80
2018-07-25T06:23:47.871Z,6.07
2018-07-25T06:26:17.663Z,6.07
2018-07-25T06:28:47.236Z,4.30
2018-07-25T06:31:16.813Z,4.53
2018-07-25T06:33:46.285Z,4.10
2018-07-25T06:36:15.861Z,3.97
2018-07-25T06:38:45.131Z,4.73
2018-07-25T06:41:14.547Z,3.73
2018-07-25T06:43:44.282Z,3.97
2018-07-25T06:46:13.717Z,4.30
2018-07-25T06:48:43.372Z,4.33
2018-07-25T06:51:12.840Z,4.43
2018-07-25T06:53:43.208Z,3.83
2018-07-25T06:56:13.216Z,3.83
2018-07-25T06:58:43.127Z,4.07
2018-07-25T07:01:12.623Z,5.17
2018-07-25T07:03:44.521Z,3.80
2018-07-25T07:06:18.479Z,3.87
2018-07-25T07:08:48.040Z,4.17
2018-07-25T07:11:17.653Z,3.90
2018-07-25T07:13:47.081Z,3.67
2018-07-25T07:16:16.590Z,5.00
2018-07-25T07:18:46.076Z,4.40
2018-07-25T07:21:15.560Z,3.70
2018-07-25T07:23:45.096Z,5.17
2018-07-25T07:26:14.683Z,4.63
2018-07-25T07:28:44.171Z,4.70
2018-07-25T07:31:13.699Z,5.30
2018-07-25T07:33:43.209Z,5.03
2018-07-25T07:36:12.760Z,4.33
2018-07-25T07:38:42.374Z,4.50
2018-07-25T07:41:13.400Z,5.10
2018-07-25T07:43:42.914Z,3.70
2018-07-25T07:46:13.339Z,3.90
2018-07-25T07:48:42.913Z,5.97
2018-07-25T07:51:12.426Z,4.87
2018-07-25T07:53:42.138Z,4.77
2018-07-25T07:56:11.644Z,4.17
2018-07-25T07:58:41.169Z,5.47
2018-07-25T08:01:12.269Z,4.43
2018-07-25T08:03:41.948Z,4.63
2018-07-25T08:06:11.455Z,4.83
2018-07-25T08:08:40.998Z,4.10
2018-07-25T08:11:12.868Z,6.23
2018-07-25T08:13:42.427Z,4.20
2018-07-25T08:16:12.055Z,4.00
2018-07-25T08:18:41.700Z,4.50
2018-07-25T08:21:11.741Z,4.80
2018-07-25T08:23:42.784Z,4.27
2018-07-25T08:26:13.125Z,4.27
2018-07-25T08:28:42.525Z,5.17
2018-07-25T08:31:12.868Z,5.17
2018-07-25T08:33:42.563Z,4.10
2018-07-25T08:36:12.834Z,4.70
2018-07-25T08:38:43.635Z,3.93
2018-07-25T08:41:13.215Z,4.90
2018-07-25T08:43:43.744Z,4.00
2018-07-25T08:46:13.943Z,3.87
2018-07-25T08:48:43.451Z,3.70
2018-07-25T08:51:13.747Z,3.70
2018-07-25T08:53:44.235Z,4.23
2018-07-25T08:56:13.819Z,3.87
2018-07-25T08:58:43.326Z,4.83
2018-07-25T09:01:12.760Z,4.07
2018-07-25T09:03:42.302Z,5.50
2018-07-25T09:06:11.369Z,4.33
2018-07-25T09:08:40.343Z,4.20
2018-07-25T09:11:09.849Z,3.67
2018-07-25T09:13:39.399Z,4.00
2018-07-25T09:16:08.956Z,3.57
2018-07-25T09:18:38.375Z,5.27
2018-07-25T09:21:07.851Z,3.63
2018-07-25T09:23:38.310Z,3.87
2018-07-25T09:26:07.861Z,3.77
2018-07-25T09:28:37.456Z,3.67
2018-07-25T09:31:07.035Z,4.50
2018-07-25T09:33:36.814Z,3.90
2018-07-25T09:36:06.406Z,3.90
2018-07-25T09:38:35.987Z,4.20
2018-07-25T09:41:05.965Z,3.70
2018-07-25T09:43:35.493Z,3.67
2018-07-25T09:46:04.694Z,3.50
2018-07-25T09:48:34.124Z,3.63
2018-07-25T09:51:03.759Z,3.40
2018-07-25T09:53:33.194Z,3.43
2018-07-25T09:56:02.759Z,3.40
2018-07-25T09:58:32.003Z,3.73
2018-07-25T10:01:01.293Z,3.40
2018-07-25T10:05:59.514Z,3.80
2018-07-25T10:08:29.078Z,3.47
2018-07-25T10:10:58.584Z,2.97
2018-07-25T10:13:28.140Z,2.93
2018-07-25T10:15:57.280Z,3.20
2018-07-25T10:18:26.701Z,3.00
2018-07-25T10:20:56.229Z,4.67
2018-07-25T10:23:25.814Z,3.13
2018-07-25T10:25:55.392Z,3.97
2018-07-25T10:28:24.865Z,3.17
2018-07-25T10:30:54.400Z,3.07
2018-07-25T10:33:23.934Z,3.10
2018-07-25T10:35:53.573Z,3.17
2018-07-25T10:38:23.285Z,3.07
2018-07-25T10:40:52.896Z,3.10
2018-07-25T10:43:22.510Z,2.93
2018-07-25T10:45:52.235Z,3.10
2018-07-25T10:48:21.760Z,2.87
2018-07-25T10:50:50.908Z,3.23
2018-07-25T10:53:20.323Z,2.90
2018-07-25T10:55:49.869Z,2.50
2018-07-25T10:58:19.314Z,2.77
2018-07-25T11:00:48.870Z,3.17
2018-07-25T11:03:18.353Z,2.63
2018-07-25T11:05:47.986Z,2.77
2018-07-25T11:08:17.578Z,4.50
2018-07-25T11:10:47.171Z,3.07
2018-07-25T11:13:16.644Z,2.83
2018-07-25T11:15:46.117Z,2.50
2018-07-25T11:18:15.741Z,3.50
2018-07-25T11:20:45.195Z,3.03
2018-07-25T11:23:15.886Z,3.23
2018-07-25T11:25:45.369Z,2.70
2018-07-25T11:28:14.930Z,2.40
2018-07-25T11:30:44.490Z,2.80
2018-07-25T11:33:13.993Z,2.30
2018-07-25T11:35:43.510Z,2.90
2018-07-25T11:38:13.095Z,2.57
2018-07-25T11:40:42.581Z,2.70
2018-07-25T11:43:12.096Z,3.60
2018-07-25T11:45:41.671Z,3.13
2018-07-25T11:48:11.220Z,2.30
2018-07-25T11:50:40.331Z,3.80
2018-07-25T11:53:09.673Z,3.10
2018-07-25T11:55:39.271Z,2.40
2018-07-25T11:58:08.683Z,2.57
2018-07-25T12:00:38.416Z,2.47
2018-07-25T12:03:08.033Z,4.93
2018-07-25T12:05:37.616Z,2.63
2018-07-25T12:08:07.385Z,3.03
2018-07-25T12:10:36.918Z,2.47
2018-07-25T12:13:06.730Z,2.60
2018-07-25T12:15:36.197Z,2.20
2018-07-25T12:18:05.877Z,2.60
2018-07-25T12:20:35.453Z,2.20
2018-07-25T12:23:04.896Z,2.00
2018-07-25T12:25:35.744Z,2.50
2018-07-25T12:28:05.599Z,2.80
2018-07-25T12:30:35.119Z,3.00
2018-07-25T12:33:04.660Z,4.53
2018-07-25T12:35:34.207Z,2.13
2018-07-25T12:38:03.879Z,2.80
2018-07-25T12:40:33.416Z,2.00
2018-07-25T12:43:03.040Z,2.13
2018-07-25T12:45:32.548Z,2.00
2018-07-25T12:48:02.165Z,3.13
2018-07-25T12:50:31.672Z,3.10
2018-07-25T12:53:01.181Z,2.87
2018-07-25T12:55:30.746Z,2.50
2018-07-25T12:58:00.216Z,2.13
2018-07-25T13:00:29.655Z,2.53
2018-07-25T13:02:59.141Z,2.93
2018-07-25T13:05:28.346Z,3.43
2018-07-25T13:07:58.038Z,1.93
2018-07-25T13:10:27.749Z,2.20
2018-07-25T13:12:56.947Z,2.00
2018-07-25T13:15:26.392Z,3.30
2018-07-25T13:17:56.027Z,2.37
2018-07-25T13:20:25.538Z,1.73
2018-07-25T13:22:55.110Z,1.87
2018-07-25T13:25:24.699Z,2.13
2018-07-25T13:27:54.218Z,2.80
2018-07-25T13:30:23.731Z,2.07
2018-07-25T13:32:52.898Z,2.10
2018-07-25T13:35:22.249Z,2.27
2018-07-25T13:37:51.349Z,1.70
2018-07-25T13:40:20.810Z,1.67
2018-07-25T13:42:50.597Z,1.73
2018-07-25T13:45:20.178Z,2.17
2018-07-25T13:47:49.767Z,2.57
2018-07-25T13:50:19.291Z,2.33
2018-07-25T13:52:48.791Z,1.70
2018-07-25T13:55:18.355Z,2.20
2018-07-25T13:57:48.188Z,1.80
2018-07-25T14:00:17.767Z,1.97
2018-07-25T14:02:46.925Z,2.70
2018-07-25T14:05:15.942Z,2.23
2018-07-25T14:07:45.639Z,2.67
2018-07-25T14:10:16.034Z,2.67
2018-07-25T14:12:45.668Z,1.87
2018-07-25T14:15:19.139Z,2.90
2018-07-25T14:17:48.850Z,1.70
2018-07-25T14:20:18.707Z,2.40
2018-07-25T14:22:48.229Z,3.00
2018-07-25T14:25:17.828Z,3.67
2018-07-25T14:27:47.320Z,2.97
2018-07-25T14:30:16.985Z,1.90
2018-07-25T14:32:47.180Z,2.70
2018-07-25T14:35:16.743Z,2.63
2018-07-25T14:37:46.298Z,2.27
2018-07-25T14:40:15.960Z,1.60
2018-07-25T14:42:45.472Z,1.83
2018-07-25T14:45:15.118Z,1.93
2018-07-25T14:47:44.740Z,3.33
2018-07-25T14:50:14.327Z,1.93
2018-07-25T14:52:43.826Z,2.47
2018-07-25T14:55:13.340Z,2.00
2018-07-25T14:57:42.815Z,1.87
2018-07-25T15:00:11.930Z,2.03
2018-07-25T15:02:41.417Z,2.17
2018-07-25T15:05:10.901Z,2.67
2018-07-25T15:07:41.939Z,1.90
2018-07-25T15:10:11.529Z,2.47
2018-07-25T15:12:41.371Z,2.70
2018-07-25T15:15:11.848Z,2.30
2018-07-25T15:17:41.394Z,3.30
2018-07-25T15:20:11.229Z,3.17
2018-07-25T15:22:41.526Z,1.63
2018-07-25T15:25:11.037Z,1.87
2018-07-25T15:27:40.746Z,3.87
2018-07-25T15:30:11.132Z,1.60
2018-07-25T15:32:41.149Z,1.90
2018-07-25T15:35:11.253Z,2.77
2018-07-25T15:37:40.781Z,1.90
2018-07-25T15:40:10.676Z,2.53
2018-07-25T15:42:40.185Z,4.90
2018-07-25T15:45:09.707Z,2.70
2018-07-25T15:47:39.510Z,3.17
2018-07-25T15:50:09.086Z,3.10
2018-07-25T15:52:38.744Z,4.13
2018-07-25T15:55:08.327Z,3.07
2018-07-25T15:57:37.548Z,5.13
2018-07-25T16:00:08.385Z,4.03
2018-07-25T16:02:38.428Z,3.60
2018-07-25T16:05:08.118Z,4.87
2018-07-25T16:07:37.645Z,3.20
2018-07-25T16:10:07.240Z,3.60
2018-07-25T16:12:36.776Z,3.97
2018-07-25T16:15:06.348Z,3.93
2018-07-25T16:17:35.894Z,3.23
2018-07-25T16:20:05.661Z,4.23
2018-07-25T16:22:35.399Z,4.30
2018-07-25T16:25:05.103Z,3.67
2018-07-25T16:27:34.602Z,3.00
2018-07-25T16:30:04.850Z,3.67
2018-07-25T16:32:34.709Z,4.10
2018-07-25T16:35:04.491Z,3.27
2018-07-25T16:37:33.989Z,3.53
2018-07-25T16:40:03.894Z,3.60
2018-07-25T16:42:33.372Z,3.20
2018-07-25T16:45:02.878Z,3.40
2018-07-25T16:47:32.413Z,3.50
2018-07-25T16:50:02.671Z,3.67
2018-07-25T16:52:32.272Z,3.27
2018-07-25T16:55:01.852Z,3.17
2018-07-25T16:57:31.410Z,4.07
2018-07-25T17:00:00.877Z,3.90
2018-07-25T17:02:31.327Z,3.90
2018-07-25T17:05:00.944Z,3.10
2018-07-25T17:07:30.529Z,3.33
2018-07-25T17:10:00.644Z,3.43
2018-07-25T17:12:30.214Z,3.50
2018-07-25T17:14:59.800Z,3.63
2018-07-25T17:17:29.682Z,3.20
2018-07-25T17:19:59.304Z,3.60
2018-07-25T17:22:28.942Z,3.30
2018-07-25T17:24:58.555Z,3.50
2018-07-25T17:27:28.252Z,3.20
2018-07-25T17:29:57.879Z,4.30
2018-07-25T17:32:27.515Z,5.80
2018-07-25T17:34:57.077Z,3.43
2018-07-25T17:37:26.803Z,3.73
2018-07-25T17:39:56.297Z,3.30
2018-07-25T17:42:26.038Z,4.07
2018-07-25T17:44:55.648Z,4.83
2018-07-25T17:47:25.360Z,3.27
2018-07-25T17:49:54.948Z,3.27
2018-07-25T17:52:24.491Z,3.70
2018-07-25T17:54:54.093Z,4.37
2018-07-25T17:57:24.759Z,3.20
2018-07-25T17:59:54.337Z,3.30
2018-07-25T18:02:23.953Z,3.57
2018-07-25T18:04:53.455Z,4.63
2018-07-25T18:07:22.978Z,6.00
2018-07-25T18:09:52.603Z,4.93
2018-07-25T18:12:22.170Z,4.10
2018-07-25T18:14:51.768Z,3.50
2018-07-25T18:17:21.380Z,3.10
2018-07-25T18:19:50.954Z,3.93
2018-07-25T18:22:20.562Z,3.80
2018-07-25T18:24:50.124Z,3.63
2018-07-25T18:27:19.683Z,2.97
2018-07-25T18:29:49.251Z,3.83
2018-07-25T18:32:18.821Z,4.00
2018-07-25T18:34:48.391Z,5.60
2018-07-25T18:37:17.934Z,3.20
2018-07-25T18:39:47.490Z,3.40
2018-07-25T18:42:17.093Z,3.80
2018-07-25T18:44:46.679Z,4.43
2018-07-25T18:47:16.239Z,4.07
2018-07-25T18:49:45.814Z,2.73
2018-07-25T18:52:15.442Z,3.73
2018-07-25T18:54:44.919Z,5.27
2018-07-25T18:57:14.533Z,3.13
2018-07-25T18:59:43.644Z,3.33
2018-07-25T19:02:13.121Z,3.50
2018-07-25T19:04:42.702Z,3.83
2018-07-25T19:07:12.234Z,3.77
2018-07-25T19:09:41.822Z,3.87
2018-07-25T19:12:11.399Z,3.60
2018-07-25T19:14:46.799Z,3.43
2018-07-25T19:17:17.105Z,4.07
2018-07-25T19:19:46.589Z,4.37
2018-07-25T19:22:16.170Z,3.53
2018-07-25T19:24:45.696Z,3.80
2018-07-25T19:27:15.220Z,3.47
2018-07-25T19:29:44.814Z,4.57
2018-07-25T19:32:14.338Z,3.80
2018-07-25T19:34:43.975Z,3.93
2018-07-25T19:37:13.575Z,4.10
2018-07-25T19:39:43.106Z,3.40
2018-07-25T19:42:12.944Z,4.17
2018-07-25T19:44:42.523Z,5.40
2018-07-25T19:47:11.673Z,3.33
2018-07-25T19:49:41.214Z,4.40
2018-07-25T19:52:10.720Z,3.43
2018-07-25T19:54:40.325Z,3.30
2018-07-25T19:57:09.799Z,3.77
2018-07-25T19:59:39.358Z,3.57
2018-07-25T20:02:08.946Z,4.40
2018-07-25T20:04:38.527Z,5.70
2018-07-25T20:07:08.064Z,4.13
2018-07-25T20:09:37.667Z,4.70
2018-07-25T20:12:07.806Z,4.37
2018-07-25T20:14:42.529Z,4.70
2018-07-25T20:17:12.077Z,4.23
2018-07-25T20:19:41.663Z,3.73
2018-07-25T20:22:11.132Z,4.73
2018-07-25T20:24:40.797Z,4.83
2018-07-25T20:27:10.614Z,3.70
2018-07-25T20:29:40.320Z,4.53
2018-07-25T20:32:09.951Z,3.77
2018-07-25T20:34:39.492Z,3.87
2018-07-25T20:37:09.172Z,6.97
2018-07-25T20:39:38.788Z,3.87
2018-07-25T20:42:08.414Z,5.70
2018-07-25T20:44:37.950Z,3.53
2018-07-25T20:47:07.545Z,4.77
2018-07-25T20:49:37.127Z,4.63
2018-07-25T20:52:08.109Z,4.00
2018-07-25T20:54:37.377Z,4.10
2018-07-25T20:57:07.938Z,5.03
2018-07-25T20:59:37.413Z,5.77
2018-07-25T21:02:07.720Z,6.37
2018-07-25T21:04:37.520Z,3.60
2018-07-25T21:07:08.104Z,4.10
2018-07-25T21:09:37.680Z,5.93
2018-07-25T21:12:07.215Z,4.33
2018-07-25T21:14:37.738Z,5.00
2018-07-25T21:17:07.458Z,4.70
2018-07-25T21:19:37.683Z,3.97
2018-07-25T21:22:08.002Z,4.90
2018-07-25T21:24:38.032Z,4.23
2018-07-25T21:27:07.910Z,5.47
2018-07-25T21:29:37.766Z,4.13
2018-07-25T21:32:07.357Z,5.57
2018-07-25T21:34:36.889Z,3.90
2018-07-25T21:37:06.499Z,4.13
2018-07-25T21:39:35.949Z,4.37
2018-07-25T21:42:05.621Z,8.60
2018-07-25T21:44:35.148Z,5.17
2018-07-25T21:47:04.842Z,4.60
2018-07-25T21:49:34.368Z,4.73
2018-07-25T21:52:03.935Z,4.47
2018-07-25T21:54:33.447Z,6.23
2018-07-25T21:57:02.895Z,4.27
2018-07-25T21:59:32.480Z,3.87
2018-07-25T22:02:02.033Z,4.60
2018-07-25T22:04:31.613Z,3.97
2018-07-25T22:07:01.433Z,5.63
2018-07-25T22:09:30.941Z,5.33
2018-07-25T22:12:00.462Z,4.40
2018-07-25T22:14:29.966Z,5.70
2018-07-25T22:16:59.570Z,4.00
2018-07-25T22:19:29.184Z,5.47
2018-07-25T22:21:58.705Z,4.50
2018-07-25T22:24:28.176Z,4.77
2018-07-25T22:26:57.717Z,4.50
2018-07-25T22:29:27.189Z,5.13
2018-07-25T22:31:56.705Z,5.27
2018-07-25T22:34:26.235Z,4.30
2018-07-25T22:36:55.690Z,4.40
2018-07-25T22:39:25.202Z,5.47
2018-07-25T22:41:54.705Z,4.50
2018-07-25T22:44:24.186Z,4.43
2018-07-25T22:46:53.628Z,4.50
2018-07-25T22:49:23.160Z,5.30
2018-07-25T22:51:52.903Z,4.07
2018-07-25T22:54:22.510Z,5.60
2018-07-25T22:56:51.618Z,4.90
2018-07-25T22:59:21.097Z,4.03
2018-07-25T23:01:50.628Z,4.50
2018-07-25T23:04:20.241Z,4.37
2018-07-25T23:06:49.781Z,4.53
2018-07-25T23:09:19.341Z,6.07
2018-07-25T23:11:48.975Z,4.50
2018-07-25T23:14:18.454Z,4.20
2018-07-25T23:16:47.995Z,4.47
2018-07-25T23:19:17.605Z,5.03
2018-07-25T23:21:47.215Z,4.70
2018-07-25T23:24:16.822Z,6.10
2018-07-25T23:26:46.325Z,4.63
2018-07-25T23:29:15.950Z,5.50
2018-07-25T23:31:45.639Z,5.27
2018-07-25T23:34:15.176Z,4.90
2018-07-25T23:36:44.653Z,5.80
2018-07-25T23:39:14.249Z,5.60
2018-07-25T23:41:43.738Z,5.50
2018-07-25T23:44:13.232Z,4.90
2018-07-25T23:46:42.854Z,6.87
2018-07-25T23:49:12.015Z,6.03
2018-07-25T23:51:41.519Z,5.57
2018-07-25T23:54:10.993Z,5.93
2018-07-25T23:56:40.548Z,6.00
2018-07-25T23:59:10.160Z,5.27
